Old Brazoria, Texas
Current Conditions -  °F | °C
As of 11:53 AM on Monday 24 Nov 2014 (Local Time) from KLBX Reporting Station
Clear Clear  
Wind Chill: 62°   Ceiling: Unl
Heat Index: 62°   Visibility: 10mi
Dew Point: 37°   Wind: 15mph
Humidity: 39%   Direction: 20°NNE
Pressure: 30.04"   Gusts: NA
Location:  28.9272°N, 95.5834°W
Report Text: KLBX 241753Z AUTO 02013KT 10SM CLR 17/03 A3004 RMK AO2 SLP172 T01670028 10167 20100 50008
Loading
Personal Weather Stations






























Interactive Weather Map New forecast layout! Learn more

10-Day Weather Forecast

Advertisements
Track Severe Weather on mobile